Time;durP1;ratioP1;P1;durP2;ratioP2;P2;SDS_P1;SDS_P2;PMS_P1;PMS_P2;Temp;Humidity;BMP_temperature;BMP_pressure;BME280_temperature;BME280_humidity;BME280_pressure;Samples;Min_cycle;Max_cycle;Signal;HPM_P1;HPM_P2
2021/06/30 00:02:05;;;;;;;27.70;16.05;;;;;;;25.89;57.86;98758.97;5111114;27;20728;-82
2021/06/30 00:04:43;;;;;;;28.42;15.40;;;;;;;25.84;57.84;98756.13;5110613;27;20384;-81
2021/06/30 00:07:21;;;;;;;22.67;15.88;;;;;;;25.77;57.97;98749.91;5111072;27;20400;-82
2021/06/30 00:10:05;;;;;;;18.83;14.90;;;;;;;25.63;58.35;98749.25;5090641;27;20389;-80
2021/06/30 00:12:42;;;;;;;25.77;15.10;;;;;;;25.66;58.18;98753.44;5110639;27;20379;-79
2021/06/30 00:15:23;;;;;;;24.52;15.70;;;;;;;25.56;58.52;98753.16;5102797;27;1425602;-79
2021/06/30 00:18:00;;;;;;;26.70;15.60;;;;;;;25.56;58.26;98769.59;5110712;27;20388;-82
2021/06/30 00:20:39;;;;;;;18.75;14.73;;;;;;;25.52;58.11;98768.41;5090488;27;20386;-82
2021/06/30 00:23:17;;;;;;;24.42;13.77;;;;;;;25.52;58.10;98762.91;5111016;27;20380;-83
2021/06/30 00:25:55;;;;;;;24.48;14.52;;;;;;;25.55;58.01;98765.19;5070384;28;20383;-86
2021/06/30 00:28:34;;;;;;;17.20;12.95;;;;;;;25.65;57.83;98762.69;5131735;27;20382;-86
2021/06/30 00:31:12;;;;;;;14.25;12.50;;;;;;;25.72;57.59;98757.97;5090858;28;20130;-83
2021/06/30 00:33:50;;;;;;;20.60;12.68;;;;;;;25.82;57.40;98744.56;5174387;27;20217;-82
2021/06/30 00:36:32;;;;;;;22.75;13.75;;;;;;;25.89;57.09;98748.03;5112099;27;20400;-80
2021/06/30 00:39:10;;;;;;;20.85;12.60;;;;;;;25.93;56.57;98759.34;5111085;27;20404;-80
2021/06/30 00:41:48;;;;;;;17.48;12.00;;;;;;;25.86;56.50;98764.91;5110945;27;20380;-86
2021/06/30 00:44:26;;;;;;;19.40;11.52;;;;;;;25.88;56.56;98762.78;5090565;27;20378;-85
2021/06/30 00:47:19;;;;;;;28.63;11.88;;;;;;;25.89;56.19;98755.41;5111791;27;20380;-87
2021/06/30 00:49:57;;;;;;;18.83;11.63;;;;;;;25.82;56.24;98751.94;5111519;27;20721;-85
2021/06/30 00:52:36;;;;;;;17.50;10.00;;;;;;;25.84;55.92;98744.31;5111044;27;20384;-79
2021/06/30 00:55:15;;;;;;;22.10;10.38;;;;;;;25.83;55.83;98727.06;5090457;28;20125;-85
2021/06/30 00:57:54;;;;;;;17.02;9.80;;;;;;;25.88;55.90;98724.47;5111074;27;20380;-87
2021/06/30 01:00:32;;;;;;;14.93;9.85;;;;;;;25.95;55.37;98731.72;5110943;27;20571;-85
2021/06/30 01:03:10;;;;;;;18.05;9.45;;;;;;;25.95;55.14;98729.81;5111132;27;20389;-89
2021/06/30 01:05:48;;;;;;;12.68;9.35;;;;;;;26.03;54.70;98747.81;5154663;27;20555;-81
2021/06/30 01:08:28;;;;;;;14.30;9.73;;;;;;;26.07;54.57;98743.53;5110858;27;20731;-80
2021/06/30 01:11:06;;;;;;;14.05;8.75;;;;;;;26.04;54.34;98722.09;5111020;27;20385;-81
2021/06/30 01:13:44;;;;;;;14.77;9.73;;;;;;;26.01;54.62;98706.94;5111022;27;20379;-80
2021/06/30 01:16:23;;;;;;;11.68;9.10;;;;;;;26.04;54.54;98706.47;5172824;27;20213;-82
2021/06/30 01:19:00;;;;;;;16.17;9.88;;;;;;;26.05;54.89;98707.31;5111080;27;20407;-83
2021/06/30 01:21:39;;;;;;;21.13;9.52;;;;;;;26.11;54.85;98709.09;5172940;27;20232;-81
2021/06/30 01:24:17;;;;;;;17.17;9.88;;;;;;;26.18;54.44;98715.31;5110881;27;20917;-81
2021/06/30 01:26:55;;;;;;;17.88;9.27;;;;;;;26.21;53.41;98717.53;5070621;28;20398;-82
2021/06/30 01:29:34;;;;;;;14.07;9.23;;;;;;;26.28;53.51;98712.78;5172995;27;20419;-82
2021/06/30 01:32:11;;;;;;;16.90;8.45;;;;;;;26.27;52.83;98715.75;5110655;27;20389;-83
2021/06/30 01:34:50;;;;;;;16.35;8.57;;;;;;;26.39;52.75;98722.88;5070086;27;20758;-85
2021/06/30 01:37:28;;;;;;;10.65;7.50;;;;;;;26.39;52.20;98735.75;5110938;27;20739;-83
2021/06/30 01:40:07;;;;;;;12.38;7.88;;;;;;;26.44;51.28;98787.09;5110830;27;20384;-82
2021/06/30 01:42:45;;;;;;;15.77;9.45;;;;;;;26.10;53.72;98795.06;5110978;27;20387;-83
2021/06/30 01:45:23;;;;;;;18.48;11.00;;;;;;;25.82;55.03;98777.41;5172927;27;20137;-81
2021/06/30 01:48:01;;;;;;;12.57;9.88;;;;;;;25.75;55.32;98767.63;5152908;27;20175;-81
2021/06/30 01:50:39;;;;;;;23.77;10.57;;;;;;;25.85;54.92;98751.47;5113505;27;20376;-81
2021/06/30 01:53:20;;;;;;;16.67;10.70;;;;;;;25.88;55.00;98754.59;5173651;27;19927;-81
2021/06/30 01:55:57;;;;;;;19.83;10.70;;;;;;;25.95;54.72;98756.34;5110773;27;20388;-81
2021/06/30 01:58:36;;;;;;;18.88;10.32;;;;;;;26.00;54.19;98760.06;5172826;27;20171;-81
2021/06/30 02:01:15;;;;;;;13.43;9.63;;;;;;;26.09;53.85;98752.31;5110886;27;20376;-84
2021/06/30 02:03:55;;;;;;;15.15;10.52;;;;;;;26.22;53.79;98752.09;5171300;27;20130;-84
2021/06/30 02:06:38;;;;;;;14.25;9.77;;;;;;;26.30;53.79;98759.97;5070237;28;20753;-82
2021/06/30 02:09:16;;;;;;;17.38;10.73;;;;;;;26.45;53.66;98751.25;5131296;27;20124;-82
2021/06/30 02:11:54;;;;;;;21.70;10.52;;;;;;;26.46;53.68;98754.84;5110865;27;20388;-79
2021/06/30 02:14:33;;;;;;;15.70;10.23;;;;;;;26.59;53.44;98774.63;5172604;27;20474;-82
2021/06/30 02:17:10;;;;;;;16.70;9.70;;;;;;;26.69;52.58;98765.78;5110625;27;20407;-79
2021/06/30 02:19:49;;;;;;;15.30;9.73;;;;;;;26.79;52.55;98779.72;5070492;28;20383;-79
2021/06/30 02:22:27;;;;;;;12.15;8.27;;;;;;;26.88;52.08;98783.72;5110712;27;20381;-82
2021/06/30 02:25:07;;;;;;;12.68;8.65;;;;;;;26.95;51.74;98793.75;5110528;27;20388;-81
2021/06/30 02:27:45;;;;;;;14.32;8.75;;;;;;;26.93;51.42;98795.88;5110975;27;20735;-78
2021/06/30 02:30:32;;;;;;;22.52;10.07;;;;;;;26.88;51.38;98805.66;5110424;27;20376;-79
2021/06/30 02:33:11;;;;;;;11.02;7.93;;;;;;;26.96;51.17;98800.88;5063439;28;20394;-77
2021/06/30 02:35:49;;;;;;;19.13;7.30;;;;;;;27.01;50.79;98804.59;5110663;27;20384;-78
2021/06/30 02:38:27;;;;;;;16.58;7.90;;;;;;;27.14;50.55;98803.50;5110464;27;20384;-78
2021/06/30 02:41:06;;;;;;;25.77;7.90;;;;;;;27.30;50.25;98797.22;5110782;27;20392;-77
2021/06/30 02:43:44;;;;;;;13.65;7.65;;;;;;;27.48;49.58;98787.13;5090272;27;20381;-79
2021/06/30 02:46:22;;;;;;;13.65;6.93;;;;;;;27.60;49.01;98790.66;5110771;27;20387;-79
2021/06/30 02:49:00;;;;;;;14.60;7.05;;;;;;;27.77;48.77;98791.53;5070387;28;20382;-79
2021/06/30 02:51:39;;;;;;;16.77;7.57;;;;;;;28.02;48.20;98787.53;5131435;27;20663;-79
2021/06/30 02:54:17;;;;;;;14.10;7.65;;;;;;;28.07;47.65;98776.66;5110361;27;20395;-78
2021/06/30 02:56:55;;;;;;;12.20;6.95;;;;;;;28.22;47.68;98787.06;5110261;27;20924;-79
2021/06/30 02:59:33;;;;;;;16.15;7.75;;;;;;;28.36;47.88;98776.53;5110757;27;20387;-78
2021/06/30 03:02:11;;;;;;;37.28;8.75;;;;;;;28.53;47.56;98799.38;5111074;27;20747;-79
2021/06/30 03:04:49;;;;;;;19.75;8.82;;;;;;;28.57;47.53;98795.03;5110191;27;20383;-77
2021/06/30 03:07:27;;;;;;;12.82;8.38;;;;;;;28.59;47.40;98803.88;5110546;27;20940;-77
2021/06/30 03:10:07;;;;;;;29.98;8.63;;;;;;;28.47;47.67;98794.88;5110609;27;20400;-79
2021/06/30 03:12:44;;;;;;;21.40;8.80;;;;;;;28.50;47.84;98806.19;5090188;27;20385;-77
2021/06/30 03:15:22;;;;;;;14.93;9.13;;;;;;;28.62;47.90;98816.25;5110976;27;20897;-82
2021/06/30 03:18:00;;;;;;;13.02;8.25;;;;;;;28.64;46.92;98823.19;5110485;27;20403;-80
2021/06/30 03:20:39;;;;;;;21.55;8.27;;;;;;;28.62;46.76;98817.09;5110624;27;20391;-77
2021/06/30 03:23:17;;;;;;;11.77;7.00;;;;;;;28.70;46.06;98827.69;5090186;27;20382;-79
2021/06/30 03:25:55;;;;;;;20.50;7.82;;;;;;;28.67;45.86;98828.19;5110891;27;20388;-78
2021/06/30 03:28:33;;;;;;;17.33;6.97;;;;;;;28.66;45.74;98837.53;5110908;27;20388;-79
2021/06/30 03:31:11;;;;;;;14.35;6.82;;;;;;;28.78;45.63;98835.50;5110646;27;20388;-78
2021/06/30 03:33:49;;;;;;;13.95;7.15;;;;;;;28.90;45.56;98837.31;5110514;27;20743;-77
2021/06/30 03:36:28;;;;;;;19.00;8.13;;;;;;;29.08;45.24;98834.28;5112945;27;20383;-77
2021/06/30 03:39:19;;;;;;;16.35;7.60;;;;;;;29.13;45.66;98834.34;5110313;27;20383;-78
2021/06/30 03:41:57;;;;;;;15.43;7.35;;;;;;;29.38;45.26;98839.31;5111091;27;20384;-79
2021/06/30 03:44:48;;;;;;;14.98;7.03;;;;;;;29.53;44.99;98835.91;5111112;27;20915;-79
2021/06/30 03:47:26;;;;;;;17.30;7.28;;;;;;;29.72;44.77;98845.50;5070052;28;20390;-83
2021/06/30 03:50:05;;;;;;;15.35;7.07;;;;;;;29.73;44.18;98852.69;5110293;27;20388;-77
2021/06/30 03:52:42;;;;;;;16.67;7.40;;;;;;;29.63;44.40;98863.59;5090315;27;20386;-77
2021/06/30 03:55:20;;;;;;;12.30;7.28;;;;;;;29.53;44.50;98874.47;5111101;27;20695;-78
2021/06/30 03:57:58;;;;;;;16.98;7.65;;;;;;;29.48;45.24;98877.97;5110460;27;20396;-77
2021/06/30 04:00:37;;;;;;;19.75;7.82;;;;;;;29.51;45.21;98882.13;5110377;27;20740;-80
2021/06/30 04:03:18;;;;;;;16.60;7.18;;;;;;;29.67;45.29;98906.03;5110839;27;20901;-78
2021/06/30 04:05:58;;;;;;;16.60;7.50;;;;;;;29.71;45.50;98909.97;5110567;27;20388;-79
2021/06/30 04:08:36;;;;;;;15.32;7.10;;;;;;;29.89;45.44;98917.03;5110851;27;20383;-77
2021/06/30 04:11:15;;;;;;;16.65;7.45;;;;;;;30.11;45.08;98897.69;5069957;28;20383;-77
2021/06/30 04:13:53;;;;;;;20.92;7.38;;;;;;;30.28;45.17;98899.53;5110736;27;20383;-77
2021/06/30 04:16:31;;;;;;;26.70;7.53;;;;;;;30.35;45.13;98900.13;5172871;27;20125;-79
2021/06/30 04:19:10;;;;;;;17.20;7.85;;;;;;;30.55;45.11;98903.09;5168612;27;20126;-77
2021/06/30 04:21:48;;;;;;;20.02;7.80;;;;;;;30.58;44.70;98902.56;5172391;27;20179;-77
2021/06/30 04:24:27;;;;;;;29.23;8.35;;;;;;;30.58;45.09;98912.72;5122892;27;20377;-78
2021/06/30 04:27:07;;;;;;;19.58;7.90;;;;;;;30.65;44.80;98913.34;5110635;27;20396;-77
2021/06/30 04:29:46;;;;;;;20.55;7.28;;;;;;;30.50;44.81;98911.28;5110523;27;20387;-75
2021/06/30 04:32:24;;;;;;;11.35;7.32;;;;;;;30.57;45.11;98909.16;5110512;27;20182;-78
2021/06/30 04:35:01;;;;;;;18.13;7.93;;;;;;;30.63;45.11;98919.13;5070789;28;20394;-77
2021/06/30 04:37:39;;;;;;;22.52;8.00;;;;;;;30.82;44.43;98929.78;5110816;27;20376;-79
2021/06/30 04:40:18;;;;;;;20.33;8.07;;;;;;;31.03;43.87;98939.88;5110401;27;20381;-77
2021/06/30 04:42:58;;;;;;;16.67;7.10;;;;;;;30.83;44.05;98914.91;5173078;27;20403;-79
2021/06/30 04:45:36;;;;;;;22.88;6.90;;;;;;;30.99;44.27;98918.56;5110724;27;20399;-78
2021/06/30 04:48:15;;;;;;;11.65;7.20;;;;;;;31.20;44.23;98914.84;5109680;27;20391;-79
2021/06/30 04:50:52;;;;;;;21.23;8.05;;;;;;;31.55;43.92;98914.19;5067290;28;20387;-79
2021/06/30 04:53:30;;;;;;;19.08;7.22;;;;;;;31.74;43.43;98906.25;5109324;27;20391;-79
2021/06/30 04:56:09;;;;;;;20.67;6.82;;;;;;;31.81;43.03;98908.75;5109658;27;20376;-81
2021/06/30 04:58:47;;;;;;;19.10;8.13;;;;;;;31.80;42.66;98907.94;5109774;27;20384;-77
2021/06/30 05:01:25;;;;;;;21.02;7.95;;;;;;;31.86;42.67;98897.78;5110395;27;20396;-79
2021/06/30 05:04:03;;;;;;;20.77;7.75;;;;;;;31.98;42.56;98906.63;5110381;27;20384;-79
2021/06/30 05:06:42;;;;;;;25.52;7.90;;;;;;;31.66;43.31;98902.09;5110498;27;20391;-79
2021/06/30 05:09:20;;;;;;;28.05;8.85;;;;;;;31.90;43.29;98896.13;5110170;27;20376;-78
2021/06/30 05:11:58;;;;;;;19.13;7.82;;;;;;;32.22;42.58;98897.81;5110684;27;20384;-77
2021/06/30 05:14:36;;;;;;;20.40;7.53;;;;;;;32.22;42.07;98897.81;5111121;27;20387;-78
2021/06/30 05:17:15;;;;;;;21.95;7.78;;;;;;;32.11;42.86;98896.97;5172716;27;20210;-78
2021/06/30 05:19:52;;;;;;;26.65;8.50;;;;;;;32.18;42.84;98889.25;5110793;27;20388;-77
2021/06/30 05:22:31;;;;;;;23.48;7.18;;;;;;;32.29;42.32;98890.09;5110808;27;20747;-79
2021/06/30 05:25:09;;;;;;;15.80;6.95;;;;;;;32.07;42.04;98885.63;5110584;27;20403;-79
2021/06/30 05:27:47;;;;;;;18.67;6.63;;;;;;;32.15;41.37;98887.84;5090938;28;20900;-80
2021/06/30 05:30:25;;;;;;;24.15;7.35;;;;;;;32.14;41.01;98891.72;5111016;27;20388;-77
2021/06/30 05:33:03;;;;;;;19.15;6.88;;;;;;;32.27;41.09;98889.50;5110967;27;20383;-78
2021/06/30 05:35:42;;;;;;;14.82;6.95;;;;;;;32.40;40.33;98894.53;5069955;27;20394;-79
2021/06/30 05:38:20;;;;;;;17.83;6.95;;;;;;;32.51;39.60;98884.31;5069820;28;20739;-80
2021/06/30 05:40:58;;;;;;;21.52;6.47;;;;;;;32.48;39.86;98893.16;5110658;27;20890;-79
2021/06/30 05:43:37;;;;;;;13.50;6.55;;;;;;;32.63;39.04;98885.66;5110838;27;20380;-79
2021/06/30 05:46:17;;;;;;;15.65;6.65;;;;;;;32.85;38.23;98906.69;5110687;27;20381;-77
2021/06/30 05:48:55;;;;;;;19.55;6.82;;;;;;;32.73;38.07;98909.75;5172931;27;19929;-77
2021/06/30 05:51:33;;;;;;;14.40;6.70;;;;;;;32.59;38.38;98915.00;5110844;27;20391;-79
2021/06/30 05:54:11;;;;;;;14.52;6.53;;;;;;;32.49;38.78;98920.53;5110558;27;20384;-79
2021/06/30 05:56:49;;;;;;;17.83;6.18;;;;;;;32.44;38.61;98926.06;5026915;28;20722;-79
2021/06/30 05:59:27;;;;;;;17.42;6.53;;;;;;;32.40;38.62;98930.50;5110440;27;20501;-78
2021/06/30 06:02:05;;;;;;;10.48;6.15;;;;;;;32.21;38.91;98934.88;5110795;27;20736;-80
2021/06/30 06:04:43;;;;;;;13.02;6.30;;;;;;;32.07;38.95;98934.56;5110897;27;20376;-78
2021/06/30 06:07:22;;;;;;;16.90;7.43;;;;;;;31.91;39.47;98919.88;5110802;27;20889;-80
2021/06/30 06:10:00;;;;;;;16.80;6.43;;;;;;;31.82;40.02;98918.72;5110700;27;20380;-79
2021/06/30 06:12:37;;;;;;;20.20;6.38;;;;;;;31.83;41.16;98912.94;5104579;27;1435516;-79
2021/06/30 06:15:15;;;;;;;21.65;6.45;;;;;;;32.07;41.24;98895.88;5090119;27;20748;-78
2021/06/30 06:17:52;;;;;;;18.63;5.95;;;;;;;32.39;40.15;98898.41;5105309;27;1413261;-79
2021/06/30 06:20:30;;;;;;;16.30;6.75;;;;;;;32.73;39.59;98886.78;5110555;27;20194;-78
2021/06/30 06:23:08;;;;;;;15.57;6.55;;;;;;;32.95;39.00;98890.09;5110988;27;20391;-79
2021/06/30 06:25:46;;;;;;;19.73;6.53;;;;;;;33.18;38.61;98876.75;5110970;27;20392;-78
2021/06/30 06:28:29;;;;;;;26.10;5.95;;;;;;;33.18;38.48;98877.56;5110723;27;20384;-78
2021/06/30 06:31:12;;;;;;;25.13;7.18;;;;;;;33.37;37.60;98869.47;5090930;28;20374;-79
2021/06/30 06:33:50;;;;;;;30.80;8.02;;;;;;;33.31;37.68;98876.13;5110906;27;20376;-78
2021/06/30 06:36:29;;;;;;;16.63;7.18;;;;;;;33.48;37.54;98870.28;5172856;27;20842;-78
2021/06/30 06:39:07;;;;;;;19.70;7.07;;;;;;;33.66;37.05;98872.38;5131191;27;20132;-79
2021/06/30 06:41:45;;;;;;;25.25;7.13;;;;;;;33.66;36.90;98877.09;5110893;27;20376;-79
2021/06/30 06:44:23;;;;;;;24.33;6.97;;;;;;;33.60;36.61;98874.34;5110999;27;20372;-78
2021/06/30 06:47:01;;;;;;;14.48;6.88;;;;;;;33.70;36.85;98876.25;5090089;28;20385;-78
2021/06/30 06:49:39;;;;;;;17.35;6.75;;;;;;;33.88;36.37;98874.75;5110751;27;20380;-79
2021/06/30 06:52:17;;;;;;;27.75;6.30;;;;;;;34.08;36.36;98877.44;5110991;27;20376;-78
2021/06/30 06:54:56;;;;;;;21.67;6.53;;;;;;;34.17;35.97;98860.16;5110697;27;20739;-79
2021/06/30 06:57:34;;;;;;;9.20;6.57;;;;;;;34.13;36.47;98867.41;5070150;28;20893;-78
2021/06/30 07:00:13;;;;;;;21.92;6.30;;;;;;;34.30;36.22;98865.91;5110738;27;20380;-78
2021/06/30 07:02:50;;;;;;;20.85;6.35;;;;;;;34.60;35.96;98861.19;5110954;27;20905;-78
2021/06/30 07:05:29;;;;;;;20.70;6.60;;;;;;;34.56;35.96;98860.94;5110730;27;20712;-78
2021/06/30 07:08:07;;;;;;;16.42;6.38;;;;;;;34.78;35.85;98862.41;5110586;27;20387;-77
2021/06/30 07:10:45;;;;;;;20.13;5.75;;;;;;;34.92;35.45;98854.22;5110942;27;20384;-78
2021/06/30 07:13:26;;;;;;;12.65;5.47;;;;;;;35.18;35.24;98846.44;5110828;27;20380;-77
2021/06/30 07:16:05;;;;;;;17.73;5.72;;;;;;;35.39;34.52;98850.59;5110794;27;20376;-78
2021/06/30 07:18:43;;;;;;;17.23;5.65;;;;;;;35.87;34.20;98842.19;5110584;27;20384;-79
2021/06/30 07:21:21;;;;;;;15.13;5.38;;;;;;;36.24;32.60;98837.75;5110775;27;20395;-77
2021/06/30 07:24:01;;;;;;;17.30;4.93;;;;;;;36.43;32.46;98838.53;5070144;28;20387;-77
2021/06/30 07:26:39;;;;;;;17.10;4.82;;;;;;;36.73;31.72;98836.34;5110894;27;20380;-78
2021/06/30 07:29:17;;;;;;;11.60;5.53;;;;;;;36.85;30.75;98833.88;5110258;27;20384;-78
2021/06/30 07:31:56;;;;;;;11.90;4.82;;;;;;;36.99;30.70;98835.88;5110625;27;20391;-78
2021/06/30 07:34:34;;;;;;;11.43;4.88;;;;;;;37.28;30.06;98832.78;5172706;27;20216;-78
2021/06/30 07:37:12;;;;;;;16.65;5.72;;;;;;;37.41;30.36;98830.00;5110713;27;20383;-77
2021/06/30 07:39:50;;;;;;;16.90;4.15;;;;;;;37.33;29.13;98827.09;5111269;27;21043;-78
2021/06/30 07:42:28;;;;;;;10.88;4.00;;;;;;;37.34;29.47;98823.97;5110777;27;20387;-78
2021/06/30 07:45:07;;;;;;;17.65;4.55;;;;;;;37.61;29.16;98830.69;5110767;27;20451;-77
2021/06/30 07:47:45;;;;;;;15.20;4.25;;;;;;;37.76;28.73;98819.16;5110462;27;20887;-78
2021/06/30 07:50:23;;;;;;;13.32;4.10;;;;;;;37.97;28.56;98825.13;5110637;27;20379;-77
2021/06/30 07:53:01;;;;;;;14.30;4.20;;;;;;;38.35;28.13;98821.97;5110423;27;20381;-77
2021/06/30 07:55:40;;;;;;;10.05;4.32;;;;;;;38.70;27.73;98824.97;5172778;27;20205;-78
2021/06/30 07:58:19;;;;;;;14.38;3.85;;;;;;;38.73;26.64;98825.16;5151925;27;20393;-80
2021/06/30 08:00:57;;;;;;;10.60;3.33;;;;;;;38.77;26.19;98831.72;5110638;27;20391;-77
2021/06/30 08:03:35;;;;;;;14.63;4.10;;;;;;;39.04;25.72;98825.16;5110974;27;20380;-78
2021/06/30 08:06:14;;;;;;;12.70;3.70;;;;;;;39.11;25.84;98828.28;5110686;27;20384;-78
2021/06/30 08:08:52;;;;;;;7.93;3.55;;;;;;;39.03;25.55;98828.25;5110592;27;20380;-79
2021/06/30 08:11:30;;;;;;;8.35;3.78;;;;;;;39.09;25.90;98840.94;5131138;27;20374;-78
2021/06/30 08:14:08;;;;;;;11.23;4.13;;;;;;;39.29;25.99;98825.56;5070411;28;20877;-78
2021/06/30 08:16:46;;;;;;;8.88;3.58;;;;;;;39.27;26.10;98820.31;5111072;27;20380;-76
2021/06/30 08:19:25;;;;;;;14.10;3.90;;;;;;;39.49;26.13;98824.13;5110883;27;20731;-78
2021/06/30 08:22:03;;;;;;;12.23;3.53;;;;;;;39.54;25.86;98821.19;5110803;27;20893;-77
2021/06/30 08:24:42;;;;;;;13.50;3.83;;;;;;;39.17;26.42;98822.56;5096218;27;20385;-78
2021/06/30 08:27:22;;;;;;;14.75;4.88;;;;;;;38.77;26.67;98820.56;5089819;28;20389;-78
2021/06/30 08:30:01;;;;;;;13.40;4.47;;;;;;;38.68;26.56;98816.91;5069595;28;20383;-78
2021/06/30 08:32:41;;;;;;;13.23;3.83;;;;;;;38.76;26.29;98810.53;5090282;27;20389;-77
2021/06/30 08:35:19;;;;;;;10.00;3.90;;;;;;;39.11;25.96;98816.28;5110674;27;20392;-76
2021/06/30 08:37:57;;;;;;;12.57;3.60;;;;;;;39.19;25.66;98815.47;5110482;27;20372;-77
2021/06/30 08:40:37;;;;;;;15.27;3.60;;;;;;;39.25;25.64;98819.81;5110505;27;20426;-78
2021/06/30 08:43:15;;;;;;;15.05;3.70;;;;;;;39.45;25.17;98811.94;5090419;28;20382;-78
2021/06/30 08:45:53;;;;;;;19.05;3.97;;;;;;;39.54;25.07;98815.59;5110723;27;20384;-77
2021/06/30 08:48:31;;;;;;;7.57;3.47;;;;;;;39.46;25.04;98802.44;5110847;27;20388;-76
2021/06/30 08:51:10;;;;;;;22.83;3.75;;;;;;;39.54;25.68;98804.41;5069962;28;20389;-76
2021/06/30 08:53:48;;;;;;;11.32;4.32;;;;;;;39.62;25.31;98789.59;5110427;27;20380;-76
2021/06/30 08:56:32;;;;;;;18.23;3.70;;;;;;;39.88;24.69;98788.81;5110732;27;20391;-77
2021/06/30 08:59:09;;;;;;;8.35;3.28;;;;;;;39.88;24.44;98780.44;5110443;27;20422;-76
2021/06/30 09:01:47;;;;;;;7.47;4.03;;;;;;;40.14;24.01;98777.63;5110171;27;20380;-79
2021/06/30 09:04:27;;;;;;;11.30;3.63;;;;;;;40.42;24.40;98784.47;5125827;27;20137;-78
2021/06/30 09:07:06;;;;;;;12.05;3.83;;;;;;;40.84;24.30;98775.44;5172413;27;20126;-78
2021/06/30 09:09:43;;;;;;;9.50;4.03;;;;;;;40.97;22.79;98771.59;5100976;27;20908;-77
2021/06/30 09:12:38;;;;;;;17.23;4.07;;;;;;;40.70;23.46;98779.28;5110630;27;20399;-76
2021/06/30 09:15:17;;;;;;;11.15;3.75;;;;;;;41.01;23.18;98770.59;5110887;27;20365;-76
2021/06/30 09:18:21;;;;;;;9.48;3.90;;;;;;;40.96;23.54;98764.31;5110782;27;20392;-76
2021/06/30 09:21:30;;;;;;;10.90;3.83;;;;;;;40.98;22.74;98768.47;5110711;27;20383;-79
2021/06/30 09:24:12;;;;;;;14.30;3.78;;;;;;;40.96;22.57;98765.16;5110198;27;20898;-75
2021/06/30 09:26:54;;;;;;;8.73;3.97;;;;;;;40.97;22.51;98761.19;5090008;27;20381;-78
2021/06/30 09:29:33;;;;;;;12.20;3.78;;;;;;;40.99;22.30;98758.06;5110365;27;20387;-76
2021/06/30 09:32:16;;;;;;;23.42;4.07;;;;;;;41.03;22.43;98752.59;5110063;27;20391;-77
2021/06/30 09:35:22;;;;;;;13.82;4.00;;;;;;;41.16;22.08;98749.56;5173003;27;20116;-78
2021/06/30 09:38:20;;;;;;;9.18;3.92;;;;;;;41.25;22.69;98750.31;5193551;27;20370;-77
2021/06/30 09:40:59;;;;;;;14.57;4.10;;;;;;;41.28;22.31;98742.41;5110600;27;20423;-77
2021/06/30 09:43:36;;;;;;;7.05;3.63;;;;;;;41.50;21.83;98744.91;5110472;27;20910;-78
2021/06/30 09:46:25;;;;;;;12.60;4.03;;;;;;;41.67;20.69;98743.91;5070112;28;20383;-79
2021/06/30 09:49:05;;;;;;;12.10;3.30;;;;;;;41.66;20.31;98736.66;5131040;27;20127;-76
2021/06/30 09:51:44;;;;;;;6.18;3.40;;;;;;;41.55;20.95;98739.06;5172915;27;20122;-77
2021/06/30 09:54:23;;;;;;;13.98;4.10;;;;;;;41.86;21.00;98741.44;5130910;27;20176;-79
2021/06/30 09:57:08;;;;;;;8.50;3.75;;;;;;;42.17;21.13;98742.97;5070316;28;20394;-81
2021/06/30 09:59:46;;;;;;;15.90;3.65;;;;;;;42.53;19.70;98738.63;5110114;27;20893;-79
2021/06/30 10:02:23;;;;;;;10.55;3.55;;;;;;;42.79;19.92;98743.94;5108571;27;20396;-77
2021/06/30 10:05:01;;;;;;;13.68;3.60;;;;;;;43.26;20.15;98751.91;5103306;27;20382;-77
2021/06/30 10:07:39;;;;;;;16.38;3.90;;;;;;;43.33;19.80;98763.34;5110567;27;20388;-78
2021/06/30 10:10:18;;;;;;;6.85;3.00;;;;;;;43.35;19.25;98755.38;5172458;27;20455;-78
2021/06/30 10:12:56;;;;;;;9.88;3.05;;;;;;;43.41;18.50;98748.34;5110508;27;20384;-77
2021/06/30 10:15:34;;;;;;;14.43;3.63;;;;;;;43.60;18.58;98745.75;5109425;27;20902;-79
2021/06/30 10:18:12;;;;;;;11.02;3.30;;;;;;;43.85;18.71;98742.81;5069482;28;20383;-77
2021/06/30 10:20:50;;;;;;;8.95;3.33;;;;;;;43.68;19.11;98740.31;5110620;27;20384;-78
2021/06/30 10:23:29;;;;;;;9.02;3.72;;;;;;;43.92;19.10;98745.03;5110642;27;20878;-78
2021/06/30 10:26:07;;;;;;;8.73;3.60;;;;;;;43.95;19.42;98745.16;5130860;27;20132;-80
2021/06/30 10:28:52;;;;;;;9.63;3.20;;;;;;;43.39;19.52;98734.63;5110306;27;20384;-77
2021/06/30 10:31:35;;;;;;;13.63;3.20;;;;;;;42.79;19.95;98735.50;5110401;27;20369;-78
2021/06/30 10:34:13;;;;;;;10.93;3.00;;;;;;;43.36;19.37;98738.13;5110445;27;20448;-77
2021/06/30 10:36:55;;;;;;;7.40;3.30;;;;;;;44.25;18.79;98737.13;5110127;27;20708;-77
2021/06/30 10:39:38;;;;;;;11.27;3.40;;;;;;;44.73;18.62;98726.75;5105418;27;20393;-76
2021/06/30 10:42:15;;;;;;;9.05;3.58;;;;;;;44.67;18.35;98728.19;5110679;27;20372;-78
2021/06/30 10:44:54;;;;;;;6.70;3.13;;;;;;;44.80;18.18;98729.72;5110401;27;20387;-77
2021/06/30 10:47:38;;;;;;;6.63;2.90;;;;;;;45.17;18.47;98725.75;5110614;27;20859;-78
2021/06/30 10:50:22;;;;;;;9.82;2.90;;;;;;;45.40;17.95;98731.50;5110395;27;20373;-77
2021/06/30 10:53:02;;;;;;;8.02;2.80;;;;;;;45.74;17.94;98718.53;5110434;27;20365;-77
2021/06/30 10:55:49;;;;;;;10.48;3.20;;;;;;;45.96;17.63;98734.75;5070300;28;20390;-77
2021/06/30 10:58:31;;;;;;;9.70;3.20;;;;;;;46.24;17.55;98728.06;5110692;27;20460;-79
2021/06/30 11:01:11;;;;;;;12.30;3.20;;;;;;;46.09;16.88;98721.28;5110916;27;20399;-78
2021/06/30 11:03:49;;;;;;;16.08;3.47;;;;;;;46.17;16.69;98723.06;5172112;27;20641;-78
2021/06/30 11:06:30;;;;;;;15.07;3.35;;;;;;;46.63;16.86;98720.28;5050172;28;20740;-78
2021/06/30 11:09:24;;;;;;;17.67;3.20;;;;;;;47.08;16.07;98718.56;5110843;27;20395;-78
2021/06/30 11:12:03;;;;;;;19.67;3.97;;;;;;;46.95;15.96;98714.31;5172219;27;20128;-79
2021/06/30 11:14:53;;;;;;;6.80;2.35;;;;;;;47.21;15.97;98719.19;5010498;28;20394;-80
2021/06/30 11:17:33;;;;;;;8.05;2.58;;;;;;;47.37;16.16;98714.16;5110321;27;20387;-79
2021/06/30 11:20:10;;;;;;;9.32;2.75;;;;;;;47.45;15.94;98706.59;5110549;27;20395;-78
2021/06/30 11:22:49;;;;;;;7.82;2.58;;;;;;;47.53;15.59;98713.97;5069813;28;20762;-79
2021/06/30 11:25:27;;;;;;;10.00;2.50;;;;;;;48.09;15.59;98712.22;5172461;27;20604;-77
2021/06/30 11:28:04;;;;;;;14.52;2.88;;;;;;;48.38;15.42;98708.47;5110347;27;20744;-78
2021/06/30 11:30:43;;;;;;;7.63;2.78;;;;;;;47.85;15.98;98705.06;5165352;27;20170;-78
2021/06/30 11:33:21;;;;;;;7.20;3.13;;;;;;;48.13;15.85;98701.75;5110290;27;20383;-78
2021/06/30 11:36:02;;;;;;;8.18;2.60;;;;;;;48.19;15.64;98700.19;5110810;27;20879;-78
2021/06/30 11:38:41;;;;;;;11.13;2.90;;;;;;;48.14;15.67;98692.84;5131000;27;20531;-76
2021/06/30 11:41:24;;;;;;;11.05;2.78;;;;;;;48.21;15.40;98692.09;5102500;27;20393;-79
2021/06/30 11:44:00;;;;;;;9.77;2.97;;;;;;;47.59;15.81;98688.97;5104467;27;1435151;-78
2021/06/30 11:46:39;;;;;;;12.73;2.92;;;;;;;48.26;15.45;98688.94;5110908;27;20719;-77
2021/06/30 11:49:18;;;;;;;13.45;2.80;;;;;;;48.26;15.23;98677.59;5131196;27;20131;-76
2021/06/30 11:52:00;;;;;;;10.07;2.92;;;;;;;48.31;14.71;98680.06;5110838;27;20380;-78
2021/06/30 11:54:38;;;;;;;5.70;2.65;;;;;;;48.20;15.56;98684.00;5110772;27;20372;-76
2021/06/30 11:57:16;;;;;;;14.70;2.53;;;;;;;48.67;14.57;98686.03;5110499;27;20385;-78
2021/06/30 12:00:20;;;;;;;9.27;2.72;;;;;;;49.00;14.16;98670.06;5111064;27;20384;-77
2021/06/30 12:03:03;;;;;;;9.50;2.63;;;;;;;49.14;14.82;98669.34;5110432;27;20398;-78
2021/06/30 12:05:41;;;;;;;13.30;3.10;;;;;;;49.32;15.04;98664.59;5110591;27;20407;-78
2021/06/30 12:08:19;;;;;;;9.73;2.90;;;;;;;49.82;14.19;98659.91;5110557;27;20385;-76
2021/06/30 12:10:57;;;;;;;9.00;2.60;;;;;;;50.37;14.01;98653.13;5110299;27;20696;-78
2021/06/30 12:13:35;;;;;;;9.70;2.70;;;;;;;49.93;14.14;98653.47;5110846;27;20380;-77
2021/06/30 12:16:14;;;;;;;6.13;2.40;;;;;;;49.81;14.06;98646.91;5110670;27;20387;-78
2021/06/30 12:18:55;;;;;;;13.40;2.67;;;;;;;50.02;13.91;98651.03;5193806;27;20591;-78
2021/06/30 12:21:36;;;;;;;17.98;3.10;;;;;;;49.83;14.46;98644.47;5105668;27;1397630;-77